Time,TemperatureF,DewpointF,PressureIn,WindDirection,WindDirectionDegrees,WindSpeedMPH,WindSpeedGustMPH,Humidity,HourlyPrecipIn,Conditions,Clouds,dailyrainin,SolarRadiationWatts/m^2,SoftwareType,DateUTC
2013-04-12 00:01:00,35.0,32.0,-100.00,East,94,7.0,17.0,88,0.00,,,-99.99,0.000000,,2013-04-12 04:01:00,
2013-04-12 00:23:00,35.0,32.0,-100.00,East,94,7.0,17.0,88,0.00,,,-99.99,0.000000,,2013-04-12 04:23:00,
2013-04-12 00:33:00,35.0,32.0,-100.00,East,94,7.0,17.0,88,0.00,,,-99.99,0.000000,,2013-04-12 04:33:00,
2013-04-12 00:43:00,35.0,32.0,-100.00,East,94,7.0,17.0,88,0.00,,,-99.99,0.000000,,2013-04-12 04:43:00,
2013-04-12 00:53:00,35.0,32.0,-100.00,East,94,7.0,17.0,88,0.00,,,-99.99,0.000000,,2013-04-12 04:53:00,
2013-04-12 01:01:00,34.0,31.0,-100.00,East,82,3.0,16.0,88,0.00,,,0.00,0.000000,,2013-04-12 05:01:00,
2013-04-12 01:32:00,34.0,31.0,-100.00,East,82,3.0,16.0,88,0.00,,,0.00,0.000000,,2013-04-12 05:32:00,
2013-04-12 01:42:00,34.0,31.0,-100.00,East,82,3.0,16.0,88,0.00,,,0.00,0.000000,,2013-04-12 05:42:00,
2013-04-12 01:52:00,34.0,31.0,-100.00,East,82,3.0,16.0,88,0.00,,,0.00,0.000000,,2013-04-12 05:52:00,
2013-04-12 02:01:00,34.0,31.0,-100.00,NNE,27,2.0,9.0,88,0.00,,,0.00,0.000000,,2013-04-12 06:01:00,
2013-04-12 02:32:00,34.0,31.0,-100.00,NNE,27,2.0,9.0,88,0.00,,,0.00,0.000000,,2013-04-12 06:32:00,
2013-04-12 02:42:00,34.0,31.0,-100.00,NNE,27,2.0,9.0,88,0.00,,,0.00,0.000000,,2013-04-12 06:42:00,
2013-04-12 02:52:00,34.0,31.0,-100.00,NNE,27,2.0,9.0,88,0.00,,,0.00,0.000000,,2013-04-12 06:52:00,
2013-04-12 03:01:00,34.0,31.0,-100.00,NW,319,3.0,9.0,88,0.00,,,0.00,0.000000,,2013-04-12 07:01:00,
2013-04-12 03:32:00,34.0,31.0,-100.00,NW,319,3.0,9.0,88,0.00,,,0.00,0.000000,,2013-04-12 07:32:00,
2013-04-12 03:42:00,34.0,31.0,-100.00,NW,319,3.0,9.0,88,0.00,,,0.00,0.000000,,2013-04-12 07:42:00,
2013-04-12 03:52:00,34.0,31.0,-100.00,NW,319,3.0,9.0,88,0.00,,,0.00,0.000000,,2013-04-12 07:52:00,
2013-04-12 04:01:00,33.0,30.0,-100.00,North,7,4.0,11.0,88,0.00,,,0.00,0.000000,,2013-04-12 08:01:00,
2013-04-12 04:22:00,33.0,30.0,-100.00,North,7,4.0,11.0,88,0.00,,,0.00,0.000000,,2013-04-12 08:22:00,
2013-04-12 04:32:00,33.0,30.0,-100.00,North,7,4.0,11.0,88,0.00,,,0.00,0.000000,,2013-04-12 08:32:00,
2013-04-12 04:43:00,33.0,30.0,-100.00,North,7,4.0,11.0,88,0.00,,,0.00,0.000000,,2013-04-12 08:43:00,
2013-04-12 04:53:00,33.0,30.0,-100.00,North,7,4.0,11.0,88,0.00,,,0.00,0.000000,,2013-04-12 08:53:00,
2013-04-12 05:01:00,33.0,30.0,-100.00,North,6,6.0,11.0,89,0.00,,,0.00,0.000000,,2013-04-12 09:01:00,
2013-04-12 05:22:00,33.0,30.0,-100.00,North,6,6.0,11.0,89,0.00,,,0.00,0.000000,,2013-04-12 09:22:00,
2013-04-12 05:33:00,33.0,30.0,-100.00,North,6,6.0,11.0,89,0.00,,,0.00,0.000000,,2013-04-12 09:33:00,
2013-04-12 05:44:00,33.0,30.0,-100.00,North,6,6.0,11.0,89,0.00,,,0.00,0.000000,,2013-04-12 09:44:00,
2013-04-12 05:53:00,33.0,30.0,-100.00,North,6,6.0,11.0,89,0.00,,,0.00,0.000000,,2013-04-12 09:53:00,
2013-04-12 06:01:00,33.0,30.0,-100.00,NE,43,5.0,11.0,89,0.00,,,0.00,0.000000,,2013-04-12 10:01:00,
2013-04-12 06:34:00,33.0,30.0,-100.00,NE,43,5.0,11.0,89,0.00,,,0.00,0.000000,,2013-04-12 10:34:00,
2013-04-12 06:43:00,33.0,30.0,-100.00,NE,43,5.0,11.0,89,0.00,,,0.00,0.000000,,2013-04-12 10:43:00,
2013-04-12 06:53:00,33.0,30.0,-100.00,NE,43,5.0,11.0,89,0.00,,,0.00,0.000000,,2013-04-12 10:53:00,
2013-04-12 07:01:00,33.0,30.0,-100.00,NNE,31,4.0,12.0,89,0.00,,,0.00,0.000000,,2013-04-12 11:01:00,
2013-04-12 07:22:00,33.0,30.0,-100.00,NNE,31,4.0,12.0,89,0.00,,,0.00,0.000000,,2013-04-12 11:22:00,
2013-04-12 07:33:00,33.0,30.0,-100.00,NNE,31,4.0,12.0,89,0.00,,,0.00,0.000000,,2013-04-12 11:33:00,
2013-04-12 07:43:00,33.0,30.0,-100.00,NNE,31,4.0,12.0,89,0.00,,,0.00,0.000000,,2013-04-12 11:43:00,
2013-04-12 07:52:00,33.0,30.0,-100.00,NNE,31,4.0,12.0,89,0.00,,,0.00,0.000000,,2013-04-12 11:52:00,
2013-04-12 08:01:00,33.0,30.0,-100.00,NE,45,1.0,7.0,89,0.00,,,0.00,5.000000,,2013-04-12 12:01:00,
2013-04-12 08:22:00,33.0,30.0,-100.00,NE,45,1.0,7.0,89,0.00,,,0.00,5.000000,,2013-04-12 12:22:00,
2013-04-12 08:33:00,33.0,30.0,-100.00,NE,45,1.0,7.0,89,0.00,,,0.00,5.000000,,2013-04-12 12:33:00,
2013-04-12 08:43:00,33.0,30.0,-100.00,NE,45,1.0,7.0,89,0.00,,,0.00,5.000000,,2013-04-12 12:43:00,
2013-04-12 08:53:00,33.0,30.0,-100.00,NE,45,1.0,7.0,89,0.00,,,0.00,5.000000,,2013-04-12 12:53:00,
2013-04-12 09:01:00,34.0,31.0,-100.00,ESE,119,0.0,3.0,89,0.00,,,0.00,80.000000,,2013-04-12 13:01:00,
2013-04-12 09:22:00,34.0,31.0,-100.00,ESE,119,0.0,3.0,89,0.00,,,0.00,80.000000,,2013-04-12 13:22:00,
2013-04-12 09:32:00,34.0,31.0,-100.00,ESE,119,0.0,3.0,89,0.00,,,0.00,80.000000,,2013-04-12 13:32:00,
2013-04-12 09:43:00,34.0,31.0,-100.00,ESE,119,0.0,3.0,89,0.00,,,0.00,80.000000,,2013-04-12 13:43:00,
2013-04-12 09:53:00,34.0,31.0,-100.00,ESE,119,0.0,3.0,89,0.00,,,0.00,80.000000,,2013-04-12 13:53:00,
2013-04-12 10:01:00,35.0,32.0,-100.00,SW,234,4.0,6.0,89,0.00,,,0.00,114.000000,,2013-04-12 14:01:00,
2013-04-12 10:23:00,35.0,32.0,-100.00,SW,234,4.0,6.0,89,0.00,,,0.00,114.000000,,2013-04-12 14:23:00,
2013-04-12 10:33:00,35.0,32.0,-100.00,SW,234,4.0,6.0,89,0.00,,,0.00,114.000000,,2013-04-12 14:33:00,
2013-04-12 10:43:00,35.0,32.0,-100.00,SW,234,4.0,6.0,89,0.00,,,0.00,114.000000,,2013-04-12 14:43:00,
2013-04-12 10:54:00,35.0,32.0,-100.00,SW,234,4.0,6.0,89,0.00,,,0.00,114.000000,,2013-04-12 14:54:00,
2013-04-12 11:01:00,36.0,33.0,-100.00,SW,234,7.0,11.0,89,0.00,,,-99.99,113.000000,,2013-04-12 15:01:00,
2013-04-12 11:33:00,36.0,33.0,-100.00,SW,234,7.0,11.0,89,0.00,,,-99.99,113.000000,,2013-04-12 15:33:00,
2013-04-12 11:43:00,36.0,33.0,-100.00,SW,234,7.0,11.0,89,0.00,,,-99.99,113.000000,,2013-04-12 15:43:00,
2013-04-12 11:53:00,36.0,33.0,-100.00,SW,234,7.0,11.0,89,0.00,,,-99.99,113.000000,,2013-04-12 15:53:00,
2013-04-12 12:01:00,38.0,35.0,-100.00,SW,233,6.0,12.0,88,0.00,,,-99.99,146.000000,,2013-04-12 16:01:00,
2013-04-12 12:34:00,38.0,35.0,-100.00,SW,233,6.0,12.0,88,0.00,,,-99.99,146.000000,,2013-04-12 16:34:00,
2013-04-12 12:43:00,38.0,35.0,-100.00,SW,233,6.0,12.0,88,0.00,,,-99.99,146.000000,,2013-04-12 16:43:00,
2013-04-12 12:53:00,38.0,35.0,-100.00,SW,233,6.0,12.0,88,0.00,,,-99.99,146.000000,,2013-04-12 16:53:00,
2013-04-12 13:01:00,38.0,35.0,-100.00,West,267,6.0,14.0,89,0.00,,,0.00,170.000000,,2013-04-12 17:01:00,
2013-04-12 13:34:00,38.0,35.0,-100.00,West,267,6.0,14.0,89,0.00,,,0.00,170.000000,,2013-04-12 17:34:00,
2013-04-12 13:47:00,38.0,35.0,-100.00,West,267,6.0,14.0,89,0.00,,,0.00,170.000000,,2013-04-12 17:47:00,
2013-04-12 14:01:00,40.0,37.0,-100.00,West,261,6.0,12.0,88,0.00,,,0.00,227.000000,,2013-04-12 18:01:00,
2013-04-12 15:01:00,39.0,36.0,-100.00,WSW,247,9.0,21.0,88,0.00,,,0.00,146.000000,,2013-04-12 19:01:00,
2013-04-12 15:33:00,39.0,36.0,-100.00,WSW,247,9.0,21.0,88,0.00,,,0.00,146.000000,,2013-04-12 19:33:00,
2013-04-12 15:43:00,39.0,36.0,-100.00,WSW,247,9.0,21.0,88,0.00,,,0.00,146.000000,,2013-04-12 19:43:00,
2013-04-12 15:53:00,39.0,36.0,-100.00,WSW,247,9.0,21.0,88,0.00,,,0.00,146.000000,,2013-04-12 19:53:00,
2013-04-12 16:01:00,37.0,34.0,-100.00,WSW,237,7.0,20.0,89,0.00,,,0.00,91.000000,,2013-04-12 20:01:00,
2013-04-12 16:33:00,37.0,34.0,-100.00,WSW,237,7.0,20.0,89,0.00,,,0.00,91.000000,,2013-04-12 20:33:00,
2013-04-12 16:43:00,37.0,34.0,-100.00,WSW,237,7.0,20.0,89,0.00,,,0.00,91.000000,,2013-04-12 20:43:00,
2013-04-12 16:52:00,37.0,34.0,-100.00,WSW,237,7.0,20.0,89,0.00,,,0.00,91.000000,,2013-04-12 20:52:00,
2013-04-12 17:01:00,39.0,36.0,-100.00,SW,234,9.0,17.0,88,0.00,,,0.00,130.000000,,2013-04-12 21:01:00,
2013-04-12 17:33:00,39.0,36.0,-100.00,SW,234,9.0,17.0,88,0.00,,,0.00,130.000000,,2013-04-12 21:33:00,
2013-04-12 17:43:00,39.0,36.0,-100.00,SW,234,9.0,17.0,88,0.00,,,0.00,130.000000,,2013-04-12 21:43:00,
2013-04-12 17:53:00,39.0,36.0,-100.00,SW,234,9.0,17.0,88,0.00,,,0.00,130.000000,,2013-04-12 21:53:00,
2013-04-12 18:01:00,40.0,37.0,-100.00,WSW,240,10.0,19.0,88,0.00,,,0.00,159.000000,,2013-04-12 22:01:00,
2013-04-12 18:33:00,40.0,37.0,-100.00,WSW,240,10.0,19.0,88,0.00,,,0.00,159.000000,,2013-04-12 22:33:00,
2013-04-12 18:43:00,40.0,37.0,-100.00,WSW,240,10.0,19.0,88,0.00,,,0.00,159.000000,,2013-04-12 22:43:00,
2013-04-12 18:52:00,40.0,37.0,-100.00,WSW,240,10.0,19.0,88,0.00,,,0.00,159.000000,,2013-04-12 22:52:00,
2013-04-12 19:01:00,40.0,37.0,-100.00,SW,236,5.0,16.0,88,0.00,,,0.00,55.000000,,2013-04-12 23:01:00,
2013-04-12 19:22:00,40.0,37.0,-100.00,SW,236,5.0,16.0,88,0.00,,,0.00,55.000000,,2013-04-12 23:22:00,
2013-04-12 19:32:00,40.0,37.0,-100.00,SW,236,5.0,16.0,88,0.00,,,0.00,55.000000,,2013-04-12 23:32:00,
2013-04-12 19:42:00,40.0,37.0,-100.00,SW,236,5.0,16.0,88,0.00,,,0.00,55.000000,,2013-04-12 23:42:00,
2013-04-12 19:52:00,40.0,37.0,-100.00,SW,236,5.0,16.0,88,0.00,,,0.00,55.000000,,2013-04-12 23:52:00,
2013-04-12 20:01:00,37.0,34.0,-100.00,WSW,237,6.0,15.0,87,0.00,,,0.00,8.000000,,2013-04-13 00:01:00,
2013-04-12 20:32:00,37.0,34.0,-100.00,WSW,237,6.0,15.0,87,0.00,,,0.00,8.000000,,2013-04-13 00:32:00,
2013-04-12 20:42:00,37.0,34.0,-100.00,WSW,237,6.0,15.0,87,0.00,,,0.00,8.000000,,2013-04-13 00:42:00,
2013-04-12 20:52:00,37.0,34.0,-100.00,WSW,237,6.0,15.0,87,0.00,,,0.00,8.000000,,2013-04-13 00:52:00,
2013-04-12 21:01:00,38.0,35.0,-100.00,SW,217,7.0,12.0,88,0.00,,,0.00,0.000000,,2013-04-13 01:01:00,
2013-04-12 21:23:00,38.0,35.0,-100.00,SW,217,7.0,12.0,88,0.00,,,0.00,0.000000,,2013-04-13 01:23:00,
2013-04-12 21:33:00,38.0,35.0,-100.00,SW,217,7.0,12.0,88,0.00,,,0.00,0.000000,,2013-04-13 01:33:00,
2013-04-12 21:43:00,38.0,35.0,-100.00,SW,217,7.0,12.0,88,0.00,,,0.00,0.000000,,2013-04-13 01:43:00,
2013-04-12 21:52:00,38.0,35.0,-100.00,SW,217,7.0,12.0,88,0.00,,,0.00,0.000000,,2013-04-13 01:52:00,
2013-04-12 22:01:00,38.0,34.0,-100.00,SW,226,7.0,13.0,87,0.00,,,0.00,0.000000,,2013-04-13 02:01:00,
2013-04-12 22:23:00,38.0,34.0,-100.00,SW,226,7.0,13.0,87,0.00,,,0.00,0.000000,,2013-04-13 02:23:00,
2013-04-12 22:33:00,38.0,34.0,-100.00,SW,226,7.0,13.0,87,0.00,,,0.00,0.000000,,2013-04-13 02:33:00,
2013-04-12 22:43:00,38.0,34.0,-100.00,SW,226,7.0,13.0,87,0.00,,,0.00,0.000000,,2013-04-13 02:43:00,
2013-04-12 22:53:00,38.0,34.0,-100.00,SW,226,7.0,13.0,87,0.00,,,0.00,0.000000,,2013-04-13 02:53:00,
2013-04-12 23:01:00,38.0,34.0,-100.00,SW,227,7.0,15.0,87,0.00,,,0.00,0.000000,,2013-04-13 03:01:00,
2013-04-12 23:33:00,38.0,34.0,-100.00,SW,227,7.0,15.0,87,0.00,,,0.00,0.000000,,2013-04-13 03:33:00,
2013-04-12 23:43:00,38.0,34.0,-100.00,SW,227,7.0,15.0,87,0.00,,,0.00,0.000000,,2013-04-13 03:43:00,
2013-04-12 23:54:00,38.0,34.0,-100.00,SW,227,7.0,15.0,87,0.00,,,0.00,0.000000,,2013-04-13 03:54:00,